createdAt,value
2017-11-08T00:00:36.431Z,0
2017-11-08T00:01:35.980Z,0
2017-11-08T00:02:36.329Z,0
2017-11-08T00:03:35.994Z,0
2017-11-08T00:04:35.939Z,0
2017-11-08T00:05:35.914Z,0
2017-11-08T00:06:35.560Z,0
2017-11-08T00:07:36.225Z,0
2017-11-08T00:08:35.873Z,0
2017-11-08T00:09:35.856Z,0
2017-11-08T00:10:35.504Z,0
2017-11-08T00:11:35.835Z,0
2017-11-08T00:12:36.158Z,0
2017-11-08T00:13:36.147Z,0
2017-11-08T00:14:35.786Z,0
2017-11-08T00:15:35.805Z,0
2017-11-08T00:16:35.419Z,0
2017-11-08T00:17:35.763Z,0
2017-11-08T00:18:36.077Z,0
2017-11-08T00:19:36.394Z,0
2017-11-08T00:20:36.051Z,0
2017-11-08T00:21:35.685Z,0
2017-11-08T00:22:35.333Z,0
2017-11-08T00:23:35.658Z,0
2017-11-08T00:24:35.679Z,0
2017-11-08T00:25:35.693Z,0
2017-11-08T00:26:36.319Z,0
2017-11-08T00:27:35.962Z,0
2017-11-08T00:28:35.260Z,0
2017-11-08T00:29:35.264Z,0
2017-11-08T00:30:35.371Z,0
2017-11-08T00:31:35.673Z,0
2017-11-08T00:32:35.889Z,0
2017-11-08T00:33:35.527Z,0
2017-11-08T00:34:35.913Z,0
2017-11-08T00:35:35.151Z,0
2017-11-08T00:36:35.137Z,0
2017-11-08T00:37:35.512Z,0
2017-11-08T00:38:35.121Z,0
2017-11-08T00:39:35.096Z,0
2017-11-08T00:40:36.109Z,0
2017-11-08T00:41:35.411Z,0
2017-11-08T00:42:35.419Z,0
2017-11-08T00:43:35.142Z,0
2017-11-08T00:44:35.026Z,0
2017-11-08T00:45:35.010Z,0
2017-11-08T00:46:35.373Z,0
2017-11-08T00:47:35.322Z,0
2017-11-08T00:48:34.969Z,0
2017-11-08T00:49:34.955Z,0
2017-11-08T00:50:35.289Z,0
2017-11-08T00:51:35.613Z,0
2017-11-08T00:52:35.259Z,0
2017-11-08T00:53:35.604Z,0
2017-11-08T00:54:34.906Z,0
2017-11-08T00:55:35.604Z,0
2017-11-08T00:56:35.879Z,0
2017-11-08T00:57:35.184Z,0
2017-11-08T00:58:35.166Z,0
2017-11-08T00:59:35.171Z,0
2017-11-08T01:00:35.481Z,0
2017-11-08T01:01:35.129Z,0
2017-11-08T01:02:35.475Z,0
2017-11-08T01:03:35.107Z,0
2017-11-08T01:04:34.742Z,0
2017-11-08T01:05:34.800Z,0
2017-11-08T01:06:35.059Z,0
2017-11-08T01:07:34.718Z,0
2017-11-08T01:08:34.690Z,0
2017-11-08T01:09:35.351Z,0
2017-11-08T01:10:34.658Z,0
2017-11-08T01:11:34.985Z,0
2017-11-08T01:12:34.631Z,0
2017-11-08T01:13:34.623Z,0
2017-11-08T01:14:34.946Z,0
2017-11-08T01:15:34.586Z,0
2017-11-08T01:16:34.916Z,0
2017-11-08T01:17:34.574Z,0
2017-11-08T01:18:35.230Z,0
2017-11-08T01:19:34.881Z,0
2017-11-08T01:20:35.197Z,0
2017-11-08T01:21:34.845Z,0
2017-11-08T01:22:34.489Z,0
2017-11-08T01:23:35.152Z,0
2017-11-08T01:24:34.805Z,0
2017-11-08T01:25:34.788Z,0
2017-11-08T01:26:34.431Z,0
2017-11-08T01:27:34.415Z,0
2017-11-08T01:28:34.402Z,0
2017-11-08T01:29:34.414Z,0
2017-11-08T01:30:35.390Z,0
2017-11-08T01:31:34.735Z,0
2017-11-08T01:32:34.729Z,0
2017-11-08T01:33:35.029Z,0
2017-11-08T01:34:34.362Z,0
2017-11-08T01:35:34.646Z,0
2017-11-08T01:36:34.637Z,0
2017-11-08T01:37:34.306Z,0
2017-11-08T01:38:34.944Z,0
2017-11-08T01:39:34.932Z,0
2017-11-08T01:40:34.928Z,0
2017-11-08T01:41:34.222Z,0
2017-11-08T01:42:34.548Z,0
2017-11-08T01:43:34.867Z,0
2017-11-08T01:44:34.180Z,0
2017-11-08T01:45:34.521Z,0
2017-11-08T01:46:34.502Z,0
2017-11-08T01:47:34.147Z,0
2017-11-08T01:48:34.839Z,0
2017-11-08T01:49:34.444Z,0
2017-11-08T01:50:34.793Z,0
2017-11-08T01:51:34.796Z,0
2017-11-08T01:52:34.062Z,0
2017-11-08T01:53:34.385Z,0
2017-11-08T01:54:34.710Z,0
2017-11-08T01:55:34.708Z,0
2017-11-08T01:56:34.009Z,0
2017-11-08T01:57:34.325Z,0
2017-11-08T01:58:33.976Z,0
2017-11-08T01:59:33.964Z,0
2017-11-08T02:00:33.946Z,0
2017-11-08T02:01:34.275Z,0
2017-11-08T02:02:34.254Z,0
2017-11-08T02:03:34.263Z,0
2017-11-08T02:04:33.888Z,0
2017-11-08T02:05:34.557Z,0
2017-11-08T02:06:34.202Z,0
2017-11-08T02:07:34.529Z,0
2017-11-08T02:08:34.181Z,0
2017-11-08T02:09:34.159Z,0
2017-11-08T02:10:34.146Z,0
2017-11-08T02:11:34.141Z,0
2017-11-08T02:12:33.797Z,0
2017-11-08T02:13:33.761Z,0
2017-11-08T02:14:34.087Z,0
2017-11-08T02:15:34.072Z,0
2017-11-08T02:16:34.398Z,0
2017-11-08T02:17:33.703Z,0
2017-11-08T02:18:33.687Z,0
2017-11-08T02:19:34.023Z,0
2017-11-08T02:20:34.360Z,0
2017-11-08T02:21:33.986Z,0
2017-11-08T02:22:33.970Z,0
2017-11-08T02:23:33.963Z,0
2017-11-08T02:24:33.940Z,0
2017-11-08T02:25:34.291Z,0
2017-11-08T02:26:33.919Z,0
2017-11-08T02:27:33.559Z,0
2017-11-08T02:28:33.901Z,0
2017-11-08T02:29:34.218Z,0
2017-11-08T02:30:33.859Z,0
2017-11-08T02:31:33.853Z,0
2017-11-08T02:32:34.174Z,0
2017-11-08T02:33:33.486Z,0
2017-11-08T02:34:34.168Z,0
2017-11-08T02:35:34.481Z,0
2017-11-08T02:36:33.786Z,0
2017-11-08T02:37:33.766Z,0
2017-11-08T02:38:33.404Z,0
2017-11-08T02:39:34.072Z,0
2017-11-08T02:40:33.379Z,0
2017-11-08T02:41:34.043Z,0
2017-11-08T02:42:33.688Z,0
2017-11-08T02:43:33.672Z,0
2017-11-08T02:44:33.668Z,0
2017-11-08T02:45:33.649Z,0
2017-11-08T02:46:33.295Z,0
2017-11-08T02:47:33.277Z,0
2017-11-08T02:48:33.600Z,0
2017-11-08T02:49:33.929Z,0
2017-11-08T02:50:33.251Z,0
2017-11-08T02:51:33.563Z,0
2017-11-08T02:52:33.578Z,0
2017-11-08T02:53:33.193Z,0
2017-11-08T02:54:33.538Z,0
2017-11-08T02:55:33.169Z,0
2017-11-08T02:56:33.495Z,0
2017-11-08T02:57:33.838Z,0
2017-11-08T02:58:33.467Z,0
2017-11-08T02:59:33.794Z,0
2017-11-08T03:00:33.435Z,0
2017-11-08T03:01:33.082Z,0
2017-11-08T03:02:33.412Z,0
2017-11-08T03:03:33.068Z,0
2017-11-08T03:04:33.730Z,0
2017-11-08T03:05:33.050Z,0
2017-11-08T03:06:33.689Z,0
2017-11-08T03:07:33.353Z,0
2017-11-08T03:08:33.324Z,0
2017-11-08T03:09:32.964Z,0
2017-11-08T03:10:33.288Z,0
2017-11-08T03:11:32.958Z,0
2017-11-08T03:12:32.923Z,0
2017-11-08T03:13:33.251Z,0
2017-11-08T03:14:33.612Z,0
2017-11-08T03:15:33.226Z,0
2017-11-08T03:16:33.205Z,0
2017-11-08T03:17:33.526Z,0
2017-11-08T03:18:33.178Z,0
2017-11-08T03:19:33.164Z,0
2017-11-08T03:20:32.811Z,0
2017-11-08T03:21:33.472Z,0
2017-11-08T03:22:33.462Z,0
2017-11-08T03:23:33.457Z,0
2017-11-08T03:24:33.093Z,0
2017-11-08T03:25:33.079Z,0
2017-11-08T03:26:32.731Z,0
2017-11-08T03:27:33.747Z,0
2017-11-08T03:28:33.036Z,0
2017-11-08T03:29:33.047Z,0
2017-11-08T03:30:33.377Z,0
2017-11-08T03:31:32.680Z,0
2017-11-08T03:32:33.668Z,0
2017-11-08T03:33:33.308Z,0
2017-11-08T03:34:33.306Z,0
2017-11-08T03:35:32.958Z,0
2017-11-08T03:36:32.594Z,0
2017-11-08T03:37:33.248Z,0
2017-11-08T03:38:32.928Z,0
2017-11-08T03:39:32.540Z,0
2017-11-08T03:40:32.540Z,0
2017-11-08T03:41:32.872Z,0
2017-11-08T03:42:33.188Z,0
2017-11-08T03:43:32.821Z,0
2017-11-08T03:44:33.150Z,0
2017-11-08T03:45:32.458Z,0
2017-11-08T03:46:32.485Z,0
2017-11-08T03:47:32.796Z,0
2017-11-08T03:48:33.114Z,0
2017-11-08T03:49:33.100Z,0
2017-11-08T03:50:32.723Z,0
2017-11-08T03:51:33.049Z,0
2017-11-08T03:52:32.357Z,0
2017-11-08T03:53:32.682Z,0
2017-11-08T03:54:32.668Z,0
2017-11-08T03:55:32.654Z,0
2017-11-08T03:56:32.979Z,0
2017-11-08T03:57:33.305Z,0
2017-11-08T03:58:32.625Z,0
2017-11-08T03:59:32.597Z,0
2017-11-08T04:00:32.584Z,0
2017-11-08T04:01:32.932Z,0
2017-11-08T04:02:32.560Z,0
2017-11-08T04:03:32.540Z,0
2017-11-08T04:04:32.525Z,0
2017-11-08T04:05:32.513Z,0
2017-11-08T04:06:32.157Z,0
2017-11-08T04:07:32.144Z,0
2017-11-08T04:08:32.823Z,0
2017-11-08T04:09:32.480Z,0
2017-11-08T04:10:32.444Z,0
2017-11-08T04:11:32.089Z,0
2017-11-08T04:12:32.072Z,0
2017-11-08T04:13:32.402Z,0
2017-11-08T04:14:32.727Z,0
2017-11-08T04:15:32.373Z,0
2017-11-08T04:16:32.356Z,0
2017-11-08T04:17:32.343Z,0
2017-11-08T04:18:32.000Z,0
2017-11-08T04:19:32.315Z,0
2017-11-08T04:20:32.325Z,0
2017-11-08T04:21:32.301Z,0
2017-11-08T04:22:32.615Z,0
2017-11-08T04:23:32.277Z,0
2017-11-08T04:24:32.591Z,0
2017-11-08T04:25:32.588Z,0
2017-11-08T04:26:31.876Z,0
2017-11-08T04:27:31.892Z,0
2017-11-08T04:28:32.538Z,0
2017-11-08T04:29:32.194Z,0
2017-11-08T04:30:32.536Z,0
2017-11-08T04:31:32.489Z,0
2017-11-08T04:32:32.147Z,0
2017-11-08T04:33:32.120Z,0
2017-11-08T04:34:32.103Z,0
2017-11-08T04:35:31.749Z,0
2017-11-08T04:36:32.093Z,0
2017-11-08T04:37:31.741Z,0
2017-11-08T04:38:31.705Z,0
2017-11-08T04:39:32.032Z,0
2017-11-08T04:40:32.035Z,0
2017-11-08T04:41:32.362Z,0
2017-11-08T04:42:31.999Z,0
2017-11-08T04:43:32.316Z,0
2017-11-08T04:44:31.974Z,0
2017-11-08T04:45:31.947Z,0
2017-11-08T04:46:31.940Z,0
2017-11-08T04:47:32.627Z,0
2017-11-08T04:48:31.916Z,0
2017-11-08T04:49:31.903Z,0
2017-11-08T04:50:31.551Z,0
2017-11-08T04:51:31.864Z,0
2017-11-08T04:52:32.189Z,0
2017-11-08T04:53:31.845Z,0
2017-11-08T04:54:31.821Z,0
2017-11-08T04:55:32.154Z,0
2017-11-08T04:56:32.148Z,0
2017-11-08T04:57:31.791Z,0
2017-11-08T04:58:32.106Z,0
2017-11-08T04:59:31.413Z,0
2017-11-08T05:00:31.397Z,0
2017-11-08T05:01:31.384Z,0
2017-11-08T05:02:31.709Z,0
2017-11-08T05:03:31.695Z,0
2017-11-08T05:04:31.706Z,0
2017-11-08T05:05:31.669Z,0
2017-11-08T05:06:31.998Z,0
2017-11-08T05:07:32.339Z,0
2017-11-08T05:08:31.285Z,0
2017-11-08T05:09:31.620Z,0
2017-11-08T05:10:31.607Z,0
2017-11-08T05:11:31.927Z,0
2017-11-08T05:12:31.570Z,0
2017-11-08T05:13:31.893Z,0
2017-11-08T05:14:31.203Z,0
2017-11-08T05:15:31.887Z,0
2017-11-08T05:16:31.514Z,0
2017-11-08T05:17:31.846Z,0
2017-11-08T05:18:31.478Z,0
2017-11-08T05:19:31.127Z,0
2017-11-08T05:20:31.146Z,0
2017-11-08T05:21:31.460Z,0
2017-11-08T05:22:31.424Z,0
2017-11-08T05:23:31.074Z,0
2017-11-08T05:24:31.742Z,0
2017-11-08T05:25:31.059Z,0
2017-11-08T05:26:31.381Z,0
2017-11-08T05:27:31.027Z,0
2017-11-08T05:28:31.684Z,0
2017-11-08T05:29:30.989Z,0
2017-11-08T05:30:31.313Z,0
2017-11-08T05:31:31.636Z,0
2017-11-08T05:32:31.293Z,0
2017-11-08T05:33:31.959Z,0
2017-11-08T05:34:30.926Z,0
2017-11-08T05:35:31.260Z,0
2017-11-08T05:36:30.882Z,0
2017-11-08T05:37:31.226Z,0
2017-11-08T05:38:30.854Z,0
2017-11-08T05:39:30.839Z,0
2017-11-08T05:40:30.823Z,0
2017-11-08T05:41:30.811Z,0
2017-11-08T05:42:31.478Z,0
2017-11-08T05:43:31.126Z,4
2017-11-08T05:44:31.130Z,4
2017-11-08T05:45:30.771Z,4
2017-11-08T05:46:31.422Z,0
2017-11-08T05:47:31.062Z,4
2017-11-08T05:48:31.052Z,8
2017-11-08T05:49:31.035Z,4
2017-11-08T05:50:31.032Z,8
2017-11-08T05:51:31.006Z,8
2017-11-08T05:52:31.334Z,8
2017-11-08T05:53:31.662Z,12
2017-11-08T05:54:30.977Z,12
2017-11-08T05:55:30.607Z,16
2017-11-08T05:56:30.936Z,16
2017-11-08T05:57:31.272Z,20
2017-11-08T05:58:30.766Z,20
2017-11-08T05:59:30.555Z,28
2017-11-08T06:00:30.872Z,32
2017-11-08T06:01:31.205Z,36
2017-11-08T06:02:30.526Z,40
2017-11-08T06:03:30.840Z,44
2017-11-08T06:04:31.207Z,52
2017-11-08T06:05:30.830Z,56
2017-11-08T06:06:30.796Z,60
2017-11-08T06:07:31.456Z,64
2017-11-08T06:08:30.754Z,76
2017-11-08T06:09:30.738Z,84
2017-11-08T06:10:30.728Z,96
2017-11-08T06:11:31.068Z,100
2017-11-08T06:12:30.717Z,108
2017-11-08T06:13:30.342Z,116
2017-11-08T06:14:30.678Z,128
2017-11-08T06:15:30.325Z,136
2017-11-08T06:16:30.641Z,148
2017-11-08T06:17:30.632Z,160
2017-11-08T06:18:30.610Z,164
2017-11-08T06:19:30.650Z,188
2017-11-08T06:20:30.242Z,204
2017-11-08T06:21:30.227Z,224
2017-11-08T06:22:30.901Z,232
2017-11-08T06:23:30.874Z,260
2017-11-08T06:24:30.889Z,284
2017-11-08T06:25:30.512Z,308
2017-11-08T06:26:30.162Z,320
2017-11-08T06:27:30.490Z,348
2017-11-08T06:28:30.126Z,380
2017-11-08T06:29:30.454Z,384
2017-11-08T06:30:30.773Z,392
2017-11-08T06:31:30.768Z,404
2017-11-08T06:32:30.067Z,420
2017-11-08T06:33:30.055Z,416
2017-11-08T06:34:30.714Z,424
2017-11-08T06:35:30.719Z,448
2017-11-08T06:36:30.008Z,440
2017-11-08T06:37:30.006Z,436
2017-11-08T06:38:30.319Z,436
2017-11-08T06:39:29.987Z,432
2017-11-08T06:40:30.639Z,424
2017-11-08T06:41:30.282Z,432
2017-11-08T06:42:29.966Z,456
2017-11-08T06:43:29.910Z,516
2017-11-08T06:44:30.233Z,568
2017-11-08T06:45:30.216Z,592
2017-11-08T06:46:30.545Z,648
2017-11-08T06:47:30.194Z,708
2017-11-08T06:48:30.514Z,696
2017-11-08T06:49:30.516Z,680
2017-11-08T06:50:30.487Z,692
2017-11-08T06:51:30.816Z,768
2017-11-08T06:52:30.137Z,820
2017-11-08T06:53:29.771Z,816
2017-11-08T06:54:29.746Z,816
2017-11-08T06:55:30.445Z,816
2017-11-08T06:56:29.727Z,832
2017-11-08T06:57:30.054Z,880
2017-11-08T06:58:29.692Z,884
2017-11-08T06:59:30.036Z,916
2017-11-08T07:00:30.009Z,1032
2017-11-08T07:01:29.990Z,992
2017-11-08T07:02:30.316Z,972
2017-11-08T07:03:29.972Z,1052
2017-11-08T07:04:29.605Z,1060
2017-11-08T07:05:29.935Z,1064
2017-11-08T07:06:30.613Z,1012
2017-11-08T07:07:30.264Z,1068
2017-11-08T07:08:30.269Z,1044
2017-11-08T07:09:29.537Z,952
2017-11-08T07:10:29.869Z,976
2017-11-08T07:11:29.509Z,1064
2017-11-08T07:12:30.198Z,1244
2017-11-08T07:13:30.160Z,1264
2017-11-08T07:14:29.829Z,1184
2017-11-08T07:15:29.463Z,1284
2017-11-08T07:16:29.439Z,1320
2017-11-08T07:17:29.769Z,1260
2017-11-08T07:18:29.782Z,1332
2017-11-08T07:19:29.738Z,1404
2017-11-08T07:20:29.744Z,1276
2017-11-08T07:21:29.712Z,1392
2017-11-08T07:22:29.381Z,1328
2017-11-08T07:23:29.396Z,1312
2017-11-08T07:24:30.015Z,1344
2017-11-08T07:25:29.663Z,1424
2017-11-08T07:26:29.643Z,1316
2017-11-08T07:27:29.641Z,1316
2017-11-08T07:28:29.973Z,1288
2017-11-08T07:29:29.266Z,1272
2017-11-08T07:30:29.971Z,1356
2017-11-08T07:31:29.235Z,1296
2017-11-08T07:32:29.898Z,1220
2017-11-08T07:33:29.229Z,1284
2017-11-08T07:34:29.192Z,1372
2017-11-08T07:35:29.182Z,1472
2017-11-08T07:36:29.178Z,1460
2017-11-08T07:37:29.841Z,1456
2017-11-08T07:38:29.136Z,1516
2017-11-08T07:39:29.837Z,1532
2017-11-08T07:40:29.467Z,1684
2017-11-08T07:41:29.784Z,1812
2017-11-08T07:42:29.422Z,2088
2017-11-08T07:43:29.452Z,2324
2017-11-08T07:44:29.396Z,2636
2017-11-08T07:45:29.722Z,2544
2017-11-08T07:46:29.728Z,2096
2017-11-08T07:47:29.016Z,1752
2017-11-08T07:48:29.683Z,1692
2017-11-08T07:49:30.016Z,2232
2017-11-08T07:50:29.314Z,2708
2017-11-08T07:51:29.639Z,2768
2017-11-08T07:52:28.949Z,2800
2017-11-08T07:53:29.617Z,2904
2017-11-08T07:54:28.951Z,2864
2017-11-08T07:55:29.261Z,2888
2017-11-08T07:56:28.916Z,2728
2017-11-08T07:57:28.893Z,2576
2017-11-08T07:58:29.210Z,2436
2017-11-08T07:59:28.864Z,2252
2017-11-08T08:00:29.535Z,2136
2017-11-08T08:01:29.184Z,1996
2017-11-08T08:02:29.155Z,1912
2017-11-08T08:03:29.491Z,2032
2017-11-08T08:04:29.143Z,2176
2017-11-08T08:05:29.117Z,2204
2017-11-08T08:06:29.112Z,2236
2017-11-08T08:07:29.089Z,2176
2017-11-08T08:08:28.741Z,2024
2017-11-08T08:09:29.406Z,1864
2017-11-08T08:10:28.726Z,1776
2017-11-08T08:11:28.708Z,1708
2017-11-08T08:12:29.418Z,1712
2017-11-08T08:13:28.799Z,1852
2017-11-08T08:14:29.369Z,2092
2017-11-08T08:15:29.491Z,2032
2017-11-08T08:16:28.727Z,2036
2017-11-08T08:17:29.454Z,1948
2017-11-08T08:18:29.308Z,1932
2017-11-08T08:19:28.959Z,1936
2017-11-08T08:20:28.925Z,2032
2017-11-08T08:21:28.948Z,1976
2017-11-08T08:22:29.296Z,2036
2017-11-08T08:23:28.897Z,2364
2017-11-08T08:24:28.875Z,2536
2017-11-08T08:25:28.887Z,2620
2017-11-08T08:26:28.859Z,2964
2017-11-08T08:27:28.838Z,3000
2017-11-08T08:28:29.192Z,2792
2017-11-08T08:29:28.487Z,3008
2017-11-08T08:30:28.496Z,3280
2017-11-08T08:31:28.444Z,3640
2017-11-08T08:32:29.113Z,3984
2017-11-08T08:33:29.102Z,4300
2017-11-08T08:34:28.770Z,4624
2017-11-08T08:35:28.396Z,4988
2017-11-08T08:36:28.387Z,4980
2017-11-08T08:37:28.723Z,4696
2017-11-08T08:38:29.389Z,4936
2017-11-08T08:39:28.362Z,5332
2017-11-08T08:40:28.678Z,5164
2017-11-08T08:41:28.324Z,4440
2017-11-08T08:42:28.651Z,4124
2017-11-08T08:43:29.043Z,3620
2017-11-08T08:44:28.288Z,3396
2017-11-08T08:45:28.274Z,3100
2017-11-08T08:46:28.630Z,3028
2017-11-08T08:47:28.609Z,3012
2017-11-08T08:48:28.578Z,2884
2017-11-08T08:49:28.587Z,2732
2017-11-08T08:50:28.557Z,2564
2017-11-08T08:51:28.671Z,2544
2017-11-08T08:52:28.537Z,2612
2017-11-08T08:53:28.910Z,2664
2017-11-08T08:54:28.167Z,2872
2017-11-08T08:55:28.496Z,3112
2017-11-08T08:56:28.503Z,3384
2017-11-08T08:57:28.131Z,4164
2017-11-08T08:58:28.843Z,5220
2017-11-08T08:59:28.447Z,4776
2017-11-08T09:00:28.442Z,3968
2017-11-08T09:01:28.092Z,3660
2017-11-08T09:02:28.087Z,4188
2017-11-08T09:03:28.749Z,4600
2017-11-08T09:04:28.728Z,4704
2017-11-08T09:05:28.711Z,4080
2017-11-08T09:06:28.363Z,3580
2017-11-08T09:07:29.034Z,4052
2017-11-08T09:08:28.698Z,3744
2017-11-08T09:09:28.331Z,3672
2017-11-08T09:10:27.979Z,3268
2017-11-08T09:11:27.979Z,2776
2017-11-08T09:12:28.632Z,2296
2017-11-08T09:13:28.288Z,2200
2017-11-08T09:14:27.933Z,2316
2017-11-08T09:15:28.262Z,2936
2017-11-08T09:16:27.921Z,3712
2017-11-08T09:17:28.251Z,4460
2017-11-08T09:18:28.572Z,5004
2017-11-08T09:19:28.261Z,5028
2017-11-08T09:20:28.212Z,4940
2017-11-08T09:21:27.875Z,4648
2017-11-08T09:22:27.842Z,4340
2017-11-08T09:23:28.172Z,3904
2017-11-08T09:24:28.159Z,3564
2017-11-08T09:25:28.158Z,3256
2017-11-08T09:26:27.793Z,3072
2017-11-08T09:27:28.468Z,2980
2017-11-08T09:28:28.110Z,2976
2017-11-08T09:29:28.103Z,2976
2017-11-08T09:30:28.093Z,2932
2017-11-08T09:31:28.115Z,2848
2017-11-08T09:32:28.413Z,2380
2017-11-08T09:33:28.058Z,2300
2017-11-08T09:34:27.807Z,2692
2017-11-08T09:35:28.157Z,3300
2017-11-08T09:36:28.130Z,3512
2017-11-08T09:37:27.686Z,3448
2017-11-08T09:38:28.318Z,3596
2017-11-08T09:39:28.478Z,3688
2017-11-08T09:40:28.058Z,3672
2017-11-08T09:41:27.964Z,3540
2017-11-08T09:42:27.623Z,3584
2017-11-08T09:43:27.727Z,3636
2017-11-08T09:44:27.646Z,3788
2017-11-08T09:45:27.984Z,3904
2017-11-08T09:46:27.571Z,3864
2017-11-08T09:47:27.909Z,3740
2017-11-08T09:48:28.304Z,3596
2017-11-08T09:49:27.619Z,3344
2017-11-08T09:50:28.439Z,3076
2017-11-08T09:51:28.235Z,2872
2017-11-08T09:52:27.851Z,2880
2017-11-08T09:53:27.832Z,3028
2017-11-08T09:54:27.823Z,3188
2017-11-08T09:55:28.516Z,2976
2017-11-08T09:56:28.154Z,2688
2017-11-08T09:57:28.120Z,2600
2017-11-08T09:58:27.773Z,2408
2017-11-08T09:59:27.762Z,2308
2017-11-08T10:00:27.478Z,2328
2017-11-08T10:01:27.759Z,2376
2017-11-08T10:02:27.739Z,2504
2017-11-08T10:03:27.741Z,2764
2017-11-08T10:04:28.040Z,2924
2017-11-08T10:05:27.736Z,2760
2017-11-08T10:06:28.050Z,2456
2017-11-08T10:07:27.736Z,2276
2017-11-08T10:08:27.740Z,2316
2017-11-08T10:09:27.307Z,2448
2017-11-08T10:10:27.631Z,2592
2017-11-08T10:11:27.638Z,2744
2017-11-08T10:12:27.989Z,2804
2017-11-08T10:13:28.004Z,2760
2017-11-08T10:14:27.246Z,2620
2017-11-08T10:15:27.952Z,2504
2017-11-08T10:16:27.588Z,2392
2017-11-08T10:17:27.560Z,2336
2017-11-08T10:18:27.567Z,2332
2017-11-08T10:19:27.882Z,2420
2017-11-08T10:20:27.557Z,2436
2017-11-08T10:21:27.518Z,2468
2017-11-08T10:22:27.491Z,2460
2017-11-08T10:23:27.491Z,2352
2017-11-08T10:24:27.203Z,2240
2017-11-08T10:25:27.130Z,2216
2017-11-08T10:26:27.448Z,2220
2017-11-08T10:27:27.442Z,2248
2017-11-08T10:28:27.106Z,2368
2017-11-08T10:29:27.081Z,2484
2017-11-08T10:30:27.398Z,2364
2017-11-08T10:31:27.761Z,2468
2017-11-08T10:32:27.404Z,3288
2017-11-08T10:33:28.056Z,3304
2017-11-08T10:34:27.363Z,3240
2017-11-08T10:35:27.354Z,2460
2017-11-08T10:36:27.734Z,2796
2017-11-08T10:37:26.986Z,3368
2017-11-08T10:38:26.984Z,3424
2017-11-08T10:39:27.306Z,3104
2017-11-08T10:40:26.950Z,2832
2017-11-08T10:41:27.974Z,2660
2017-11-08T10:43:26.987Z,2572
2017-11-08T10:44:27.571Z,2492
2017-11-08T10:45:27.216Z,2360
2017-11-08T10:46:26.840Z,2216
2017-11-08T10:47:27.524Z,2224
2017-11-08T10:48:27.159Z,2312
2017-11-08T10:49:27.145Z,2356
2017-11-08T10:50:27.138Z,2416
2017-11-08T10:51:26.800Z,2480
2017-11-08T10:52:27.489Z,2640
2017-11-08T10:53:27.444Z,2816
2017-11-08T10:54:27.092Z,2964
2017-11-08T10:55:27.079Z,3036
2017-11-08T10:56:27.064Z,3060
2017-11-08T10:57:27.068Z,3116
2017-11-08T10:58:27.056Z,3300
2017-11-08T10:59:27.044Z,3468
2017-11-08T11:00:27.024Z,3504
2017-11-08T11:01:27.350Z,3416
2017-11-08T11:02:27.051Z,3384
2017-11-08T11:03:27.338Z,3668
2017-11-08T11:04:26.635Z,4140
2017-11-08T11:05:26.965Z,4476
2017-11-08T11:06:27.311Z,4472
2017-11-08T11:07:26.940Z,4088
2017-11-08T11:08:27.304Z,3700
2017-11-08T11:09:26.945Z,3488
2017-11-08T11:10:26.916Z,3340
2017-11-08T11:11:26.558Z,3384
2017-11-08T11:12:27.596Z,3640
2017-11-08T11:13:27.228Z,3784
2017-11-08T11:14:27.211Z,3752
2017-11-08T11:15:26.865Z,3904
2017-11-08T11:16:26.498Z,4088
2017-11-08T11:17:26.850Z,4372
2017-11-08T11:18:26.495Z,4608
2017-11-08T11:19:26.809Z,4684
2017-11-08T11:20:26.838Z,4404
2017-11-08T11:21:26.449Z,4108
2017-11-08T11:22:26.431Z,3856
2017-11-08T11:23:26.782Z,3700
2017-11-08T11:24:26.769Z,3676
2017-11-08T11:25:26.742Z,3744
2017-11-08T11:26:26.753Z,4040
2017-11-08T11:27:26.719Z,4176
2017-11-08T11:28:26.713Z,3964
2017-11-08T11:29:26.705Z,3624
2017-11-08T11:30:26.682Z,3360
2017-11-08T11:31:26.687Z,3108
2017-11-08T11:32:26.677Z,2872
2017-11-08T11:33:26.361Z,2692
2017-11-08T11:34:27.067Z,2636
2017-11-08T11:35:26.678Z,2616
2017-11-08T11:36:27.128Z,2664
2017-11-08T11:37:26.792Z,2824
2017-11-08T11:38:27.009Z,2996
2017-11-08T11:39:26.610Z,3368
2017-11-08T11:40:26.601Z,3964
2017-11-08T11:41:26.592Z,4452
2017-11-08T11:42:27.238Z,4452
2017-11-08T11:43:26.550Z,4184
2017-11-08T11:44:26.540Z,3808
2017-11-08T11:45:26.538Z,3380
2017-11-08T11:46:26.202Z,3088
2017-11-08T11:47:27.189Z,2996
2017-11-08T11:48:27.209Z,2920
2017-11-08T11:49:26.847Z,2752
2017-11-08T11:50:26.467Z,2616
2017-11-08T11:51:26.483Z,2248
2017-11-08T11:52:26.112Z,1980
2017-11-08T11:53:26.806Z,1864
2017-11-08T11:54:26.459Z,1680
2017-11-08T11:55:26.753Z,1772
2017-11-08T11:56:26.056Z,2032
2017-11-08T11:57:26.059Z,2048
2017-11-08T11:58:26.040Z,1648
2017-11-08T11:59:26.706Z,1532
2017-11-08T12:00:26.742Z,1736
2017-11-08T12:01:26.681Z,1976
2017-11-08T12:02:26.344Z,1852
2017-11-08T12:03:26.326Z,1636
2017-11-08T12:04:26.305Z,1580
2017-11-08T12:05:25.954Z,1612
2017-11-08T12:06:26.293Z,1684
2017-11-08T12:07:26.639Z,1732
2017-11-08T12:08:26.270Z,1756
2017-11-08T12:09:25.923Z,1756
2017-11-08T12:10:25.916Z,1740
2017-11-08T12:11:26.232Z,1756
2017-11-08T12:12:26.226Z,1792
2017-11-08T12:13:26.547Z,1700
2017-11-08T12:14:25.853Z,1624
2017-11-08T12:15:26.184Z,1556
2017-11-08T12:16:26.517Z,1588
2017-11-08T12:17:26.158Z,1684
2017-11-08T12:18:26.145Z,1796
2017-11-08T12:19:26.650Z,2000
2017-11-08T12:20:26.515Z,2280
2017-11-08T12:21:26.478Z,2172
2017-11-08T12:22:26.233Z,2112
2017-11-08T12:23:26.158Z,2028
2017-11-08T12:24:26.079Z,2188
2017-11-08T12:25:26.416Z,3016
2017-11-08T12:26:26.063Z,3644
2017-11-08T12:27:26.729Z,3816
2017-11-08T12:28:26.717Z,3728
2017-11-08T12:29:26.378Z,3488
2017-11-08T12:30:26.005Z,3500
2017-11-08T12:31:26.012Z,3916
2017-11-08T12:32:26.665Z,4048
2017-11-08T12:33:26.341Z,3888
2017-11-08T12:34:26.319Z,3632
2017-11-08T12:35:25.944Z,3200
2017-11-08T12:36:25.594Z,2888
2017-11-08T12:37:26.271Z,2648
2017-11-08T12:38:25.907Z,2404
2017-11-08T12:39:25.914Z,2188
2017-11-08T12:40:26.576Z,1976
2017-11-08T12:41:26.577Z,1872
2017-11-08T12:42:25.865Z,1872
2017-11-08T12:43:25.850Z,1952
2017-11-08T12:44:25.865Z,2012
2017-11-08T12:45:26.529Z,2068
2017-11-08T12:46:26.165Z,2140
2017-11-08T12:47:25.475Z,2224
2017-11-08T12:48:26.142Z,2236
2017-11-08T12:49:25.786Z,2180
2017-11-08T12:50:25.777Z,2288
2017-11-08T12:51:25.415Z,2564
2017-11-08T12:52:26.086Z,2804
2017-11-08T12:53:26.074Z,2976
2017-11-08T12:54:25.728Z,3016
2017-11-08T12:55:25.371Z,2960
2017-11-08T12:56:26.064Z,3088
2017-11-08T12:57:26.050Z,3348
2017-11-08T12:58:26.040Z,3576
2017-11-08T12:59:25.666Z,3800
2017-11-08T13:00:25.654Z,3904
2017-11-08T13:01:25.309Z,3768
2017-11-08T13:02:25.990Z,3028
2017-11-08T13:03:25.961Z,2436
2017-11-08T13:04:25.621Z,2244
2017-11-08T13:05:25.939Z,2144
2017-11-08T13:06:25.585Z,2004
2017-11-08T13:07:25.576Z,1912
2017-11-08T13:08:25.575Z,1832
2017-11-08T13:09:25.559Z,1740
2017-11-08T13:10:25.201Z,1588
2017-11-08T13:11:25.531Z,1472
2017-11-08T13:12:25.530Z,1416
2017-11-08T13:13:25.844Z,1440
2017-11-08T13:14:25.153Z,1520
2017-11-08T13:15:25.492Z,1672
2017-11-08T13:16:25.494Z,1892
2017-11-08T13:17:25.814Z,2088
2017-11-08T13:18:25.125Z,2224
2017-11-08T13:19:25.436Z,2536
2017-11-08T13:20:25.425Z,2684
2017-11-08T13:21:25.425Z,2616
2017-11-08T13:22:25.767Z,2744
2017-11-08T13:23:25.393Z,2496
2017-11-08T13:24:25.035Z,2212
2017-11-08T13:25:25.366Z,2028
2017-11-08T13:26:25.351Z,1932
2017-11-08T13:27:25.685Z,1912
2017-11-08T13:28:25.336Z,1844
2017-11-08T13:29:25.319Z,1792
2017-11-08T13:30:24.966Z,1736
2017-11-08T13:31:25.308Z,1608
2017-11-08T13:32:25.283Z,1524
2017-11-08T13:33:25.273Z,1532
2017-11-08T13:34:25.276Z,1532
2017-11-08T13:35:25.252Z,1440
2017-11-08T13:36:25.235Z,1352
2017-11-08T13:37:25.567Z,1328
2017-11-08T13:38:25.556Z,1364
2017-11-08T13:39:25.217Z,1404
2017-11-08T13:40:25.200Z,1440
2017-11-08T13:41:25.549Z,1428
2017-11-08T13:42:25.167Z,1368
2017-11-08T13:43:25.153Z,1284
2017-11-08T13:44:24.814Z,1252
2017-11-08T13:45:25.133Z,1208
2017-11-08T13:46:25.131Z,1088
2017-11-08T13:47:25.111Z,1056
2017-11-08T13:48:24.772Z,1032
2017-11-08T13:49:24.741Z,1016
2017-11-08T13:50:25.073Z,1028
2017-11-08T13:51:25.123Z,1060
2017-11-08T13:52:25.390Z,1104
2017-11-08T13:53:25.381Z,1168
2017-11-08T13:54:25.414Z,1268
2017-11-08T13:55:25.013Z,1220
2017-11-08T13:56:25.353Z,1116
2017-11-08T13:57:24.645Z,1052